createdAt,value
2023-04-20T00:04:07.020Z,5.50
2023-04-20T00:15:05.187Z,7.20
2023-04-20T00:20:25.217Z,5.40
2023-04-20T00:25:38.719Z,7.37
2023-04-20T00:30:59.477Z,5.97
2023-04-20T00:36:22.360Z,5.30
2023-04-20T00:41:54.134Z,6.37
2023-04-20T00:47:12.549Z,6.17
2023-04-20T00:52:22.638Z,6.57
2023-04-20T00:57:41.873Z,6.23
2023-04-20T01:03:12.032Z,6.33
2023-04-20T01:08:34.970Z,7.17
2023-04-20T01:13:42.194Z,5.17
2023-04-20T01:18:53.500Z,14.83
2023-04-20T01:24:05.368Z,6.90
2023-04-20T01:29:17.514Z,6.43
2023-04-20T01:34:45.747Z,12.17
2023-04-20T01:39:57.163Z,22.60
2023-04-20T01:51:00.780Z,11.33
2023-04-20T02:01:51.444Z,8.60
2023-04-20T02:18:53.355Z,6.97
2023-04-20T02:35:38.314Z,5.73
2023-04-20T02:40:55.726Z,4.60
2023-04-20T02:51:34.419Z,5.63
2023-04-20T02:56:51.974Z,5.60
2023-04-20T03:02:01.468Z,5.17
2023-04-20T03:07:19.340Z,5.97
2023-04-20T03:12:26.378Z,5.70
2023-04-20T03:17:31.857Z,5.57
2023-04-20T03:22:37.109Z,5.67
2023-04-20T03:27:42.401Z,6.13
2023-04-20T03:32:47.943Z,5.17
2023-04-20T03:37:53.356Z,5.23
2023-04-20T03:42:58.756Z,5.80
2023-04-20T03:48:04.256Z,5.97
2023-04-20T03:53:09.905Z,6.20
2023-04-20T03:58:16.059Z,6.70
2023-04-20T04:03:21.609Z,5.97
2023-04-20T04:08:27.541Z,7.27
2023-04-20T04:13:34.737Z,5.87
2023-04-20T04:18:43.386Z,7.00
2023-04-20T04:23:48.971Z,7.37
2023-04-20T04:28:54.325Z,6.57
2023-04-20T04:34:14.707Z,5.30
2023-04-20T04:39:42.957Z,6.00
2023-04-20T04:44:52.498Z,6.43
2023-04-20T04:50:00.104Z,7.23
2023-04-20T04:55:07.470Z,6.57
2023-04-20T05:00:13.315Z,6.93
2023-04-20T05:05:18.806Z,6.57
2023-04-20T05:10:24.113Z,6.10
2023-04-20T05:15:29.846Z,6.33
2023-04-20T05:20:35.117Z,6.57
2023-04-20T05:25:40.340Z,7.00
2023-04-20T05:30:45.733Z,6.80
2023-04-20T05:35:52.135Z,6.40
2023-04-20T05:40:57.546Z,5.63
2023-04-20T05:46:02.968Z,6.47
2023-04-20T05:51:08.468Z,6.67
2023-04-20T05:56:15.166Z,6.70
2023-04-20T06:01:20.558Z,6.30
2023-04-20T06:06:26.692Z,6.33
2023-04-20T06:11:32.132Z,7.97
2023-04-20T06:16:37.795Z,6.60
2023-04-20T06:21:43.425Z,5.90
2023-04-20T06:26:48.621Z,6.93
2023-04-20T06:31:54.055Z,6.10
2023-04-20T06:36:59.512Z,6.30
2023-04-20T06:42:04.953Z,5.60
2023-04-20T06:47:10.379Z,5.80
2023-04-20T06:52:15.799Z,5.90
2023-04-20T06:57:21.127Z,5.93
2023-04-20T07:02:26.907Z,6.13
2023-04-20T07:07:33.401Z,6.83
2023-04-20T07:12:42.203Z,5.67
2023-04-20T07:17:46.857Z,5.90
2023-04-20T07:22:52.299Z,5.00
2023-04-20T07:27:57.461Z,5.60
2023-04-20T07:33:04.087Z,4.77
2023-04-20T07:38:11.226Z,4.27
2023-04-20T07:43:22.281Z,5.50
2023-04-20T07:48:32.463Z,4.83
2023-04-20T07:53:41.522Z,4.90
2023-04-20T07:58:47.932Z,5.63
2023-04-20T08:03:56.261Z,4.70
2023-04-20T08:09:03.404Z,4.60
2023-04-20T08:14:10.173Z,5.63
2023-04-20T08:19:16.445Z,5.53
2023-04-20T08:24:21.865Z,5.47
2023-04-20T08:29:27.519Z,5.50
2023-04-20T08:34:32.885Z,5.50
2023-04-20T08:39:39.279Z,4.87
2023-04-20T08:44:44.721Z,5.40
2023-04-20T08:49:52.903Z,3.80
2023-04-20T08:54:58.169Z,4.37
2023-04-20T09:00:07.597Z,4.27
2023-04-20T09:05:12.914Z,4.30
2023-04-20T09:10:19.992Z,5.13
2023-04-20T09:15:27.111Z,4.50
2023-04-20T09:20:35.105Z,5.17
2023-04-20T09:25:42.430Z,5.23
2023-04-20T09:30:49.476Z,5.80
2023-04-20T09:35:54.621Z,5.07
2023-04-20T09:41:01.965Z,5.23
2023-04-20T09:46:08.582Z,5.53
2023-04-20T09:51:14.392Z,5.10
2023-04-20T09:56:21.083Z,4.87
2023-04-20T10:01:27.321Z,3.87
2023-04-20T10:06:35.407Z,3.30
2023-04-20T10:11:52.700Z,3.97
2023-04-20T10:17:02.921Z,4.40
2023-04-20T10:22:11.840Z,4.43
2023-04-20T10:27:21.329Z,4.47
2023-04-20T10:32:28.695Z,3.47
2023-04-20T10:37:34.657Z,3.58
2023-04-20T10:42:46.946Z,4.47
2023-04-20T10:47:52.187Z,4.05
2023-04-20T10:52:57.332Z,4.53
2023-04-20T10:58:02.477Z,3.80
2023-04-20T11:03:08.664Z,4.00
2023-04-20T11:08:13.979Z,4.00
2023-04-20T11:13:25.271Z,3.87
2023-04-20T11:18:31.200Z,4.30
2023-04-20T11:23:39.907Z,3.83
2023-04-20T11:28:56.461Z,4.80
2023-04-20T11:34:02.244Z,4.47
2023-04-20T11:39:12.513Z,4.10
2023-04-20T11:44:18.173Z,3.60
2023-04-20T11:49:23.973Z,3.83
2023-04-20T11:54:30.712Z,3.77
2023-04-20T11:59:36.405Z,3.90
2023-04-20T12:04:41.982Z,4.47
2023-04-20T12:09:48.722Z,4.20
2023-04-20T12:14:53.936Z,4.23
2023-04-20T12:19:59.174Z,3.37
2023-04-20T12:25:05.433Z,3.33
2023-04-20T12:30:11.250Z,2.87
2023-04-20T12:35:16.504Z,2.97
2023-04-20T12:40:22.202Z,3.98
2023-04-20T12:45:27.412Z,3.10
2023-04-20T12:50:32.782Z,3.40
2023-04-20T12:55:37.951Z,2.92
2023-04-20T13:00:43.763Z,3.53
2023-04-20T13:05:49.087Z,3.23
2023-04-20T13:10:54.387Z,3.02
2023-04-20T13:15:59.722Z,3.23
2023-04-20T13:21:10.453Z,2.40
2023-04-20T13:26:17.537Z,2.50
2023-04-20T13:31:23.030Z,3.33
2023-04-20T13:36:28.480Z,2.00
2023-04-20T13:41:38.878Z,2.62
2023-04-20T13:46:45.189Z,1.92
2023-04-20T13:51:50.570Z,2.83
2023-04-20T13:56:56.350Z,2.70
2023-04-20T14:02:01.585Z,2.40
2023-04-20T14:07:07.269Z,2.07
2023-04-20T14:12:13.929Z,1.20
2023-04-20T14:17:19.621Z,2.05
2023-04-20T14:22:24.947Z,2.08
2023-04-20T14:27:31.540Z,1.77
2023-04-20T14:32:36.812Z,1.70
2023-04-20T14:37:42.039Z,1.97
2023-04-20T14:42:48.179Z,1.87
2023-04-20T14:47:57.644Z,2.13
2023-04-20T14:53:03.022Z,2.73
2023-04-20T14:58:08.463Z,2.17
2023-04-20T15:03:13.973Z,2.63
2023-04-20T15:08:19.320Z,2.13
2023-04-20T15:13:25.017Z,1.90
2023-04-20T15:18:30.207Z,2.27
2023-04-20T15:23:35.692Z,2.53
2023-04-20T15:28:42.046Z,2.83
2023-04-20T15:33:48.781Z,2.20
2023-04-20T15:38:56.064Z,2.63
2023-04-20T15:44:01.131Z,2.53
2023-04-20T15:49:07.455Z,2.70
2023-04-20T15:54:12.734Z,2.40
2023-04-20T15:59:19.735Z,2.30
2023-04-20T16:04:27.684Z,2.53
2023-04-20T16:09:33.403Z,4.63
2023-04-20T16:14:38.763Z,2.70
2023-04-20T16:19:43.941Z,2.87
2023-04-20T16:24:49.191Z,2.50
2023-04-20T16:30:06.907Z,2.40
2023-04-20T16:35:12.422Z,2.93
2023-04-20T16:40:23.214Z,2.87
2023-04-20T16:45:29.778Z,3.60
2023-04-20T16:50:36.760Z,3.20
2023-04-20T16:55:42.080Z,6.03
2023-04-20T17:00:47.418Z,6.00
2023-04-20T17:05:52.732Z,4.17
2023-04-20T17:11:02.760Z,4.50
2023-04-20T17:16:07.998Z,5.93
2023-04-20T17:21:13.309Z,4.70
2023-04-20T17:26:18.756Z,5.13
2023-04-20T17:31:24.299Z,4.97
2023-04-20T17:36:29.661Z,6.13
2023-04-20T17:41:37.786Z,5.00
2023-04-20T17:46:43.212Z,5.13
2023-04-20T17:51:48.566Z,6.60
2023-04-20T17:56:54.130Z,6.73
2023-04-20T18:01:59.752Z,6.83
2023-04-20T18:07:07.011Z,7.00
2023-04-20T18:12:12.272Z,7.20
2023-04-20T18:17:17.583Z,5.60
2023-04-20T18:22:24.414Z,6.20
2023-04-20T18:27:31.292Z,6.10
2023-04-20T18:32:39.621Z,6.80
2023-04-20T18:37:45.016Z,6.53
2023-04-20T18:42:50.987Z,7.13
2023-04-20T18:47:58.334Z,8.43
2023-04-20T18:53:05.431Z,6.77
2023-04-20T18:58:12.406Z,6.60
2023-04-20T19:03:17.803Z,7.03
2023-04-20T19:08:24.493Z,7.50
2023-04-20T19:13:31.137Z,6.87
2023-04-20T19:18:39.246Z,6.43
2023-04-20T19:23:44.715Z,7.60
2023-04-20T19:28:53.768Z,7.03
2023-04-20T19:34:00.068Z,8.33
2023-04-20T19:39:08.408Z,8.07
2023-04-20T19:44:16.574Z,8.20
2023-04-20T19:49:24.048Z,7.70
2023-04-20T19:54:29.465Z,6.97
2023-04-20T19:59:45.900Z,6.73
2023-04-20T20:04:57.144Z,7.93
2023-04-20T20:10:03.921Z,8.03
2023-04-20T20:15:16.317Z,6.87
2023-04-20T20:20:24.589Z,7.07
2023-04-20T20:25:32.833Z,7.17
2023-04-20T20:30:48.617Z,7.73
2023-04-20T20:35:54.638Z,6.40
2023-04-20T20:40:59.837Z,6.47
2023-04-20T20:46:05.224Z,8.23
2023-04-20T20:51:12.041Z,8.07
2023-04-20T20:56:17.402Z,6.40
2023-04-20T21:01:22.880Z,5.87
2023-04-20T21:06:28.186Z,7.83
2023-04-20T21:11:33.250Z,6.90
2023-04-20T21:16:38.516Z,6.73
2023-04-20T21:21:43.789Z,6.57
2023-04-20T21:26:49.203Z,7.27
2023-04-20T21:31:54.876Z,6.63
2023-04-20T21:37:02.477Z,7.00
2023-04-20T21:42:07.756Z,5.80
2023-04-20T21:47:13.110Z,7.70
2023-04-20T21:52:18.396Z,7.10
2023-04-20T21:57:23.508Z,6.87
2023-04-20T22:02:28.880Z,6.77
2023-04-20T22:07:34.416Z,7.57
2023-04-20T22:12:41.201Z,6.57
2023-04-20T22:17:46.643Z,7.50
2023-04-20T22:22:51.902Z,6.70
2023-04-20T22:27:57.221Z,6.40
2023-04-20T22:33:03.940Z,6.40
2023-04-20T22:38:10.446Z,7.30
2023-04-20T22:43:16.043Z,6.20
2023-04-20T22:48:21.802Z,6.20
2023-04-20T22:53:29.741Z,6.10
2023-04-20T22:58:35.460Z,6.37
2023-04-20T23:03:40.681Z,6.63
2023-04-20T23:08:47.170Z,5.97
2023-04-20T23:13:52.310Z,5.90
2023-04-20T23:18:57.437Z,5.60
2023-04-20T23:24:02.609Z,7.03
2023-04-20T23:29:07.829Z,5.10
2023-04-20T23:34:13.399Z,5.83
2023-04-20T23:39:19.499Z,5.97
2023-04-20T23:44:26.030Z,5.93
2023-04-20T23:49:31.142Z,6.37
2023-04-20T23:54:36.216Z,6.40
2023-04-20T23:59:41.503Z,6.13
